Time,TemperatureF,DewpointF,PressureIn,WindDirection,WindDirectionDegrees,WindSpeedMPH,WindSpeedGustMPH,Humidity,HourlyPrecipIn,Conditions,Clouds,dailyrainin,SoftwareType,DateUTC
2013-02-12 00:01:00,23.2,20.2,30.19,SW,221,3.0,5.0,88,0.00,,---,0.00,VWS V14.01,2013-02-12 06:01:00,
2013-02-12 00:07:00,23.0,20.0,30.19,SW,221,3.0,4.0,88,0.00,,---,0.00,VWS V14.01,2013-02-12 06:07:00,
2013-02-12 00:13:00,22.9,19.9,30.19,SW,221,2.0,4.0,88,0.00,,---,0.00,VWS V14.01,2013-02-12 06:13:00,
2013-02-12 00:19:00,22.9,19.9,30.19,SW,221,2.0,4.0,88,0.00,,---,0.00,VWS V14.01,2013-02-12 06:19:00,
2013-02-12 00:25:00,23.1,20.1,30.19,SW,221,1.0,4.0,88,0.00,,---,0.00,VWS V14.01,2013-02-12 06:25:00,
2013-02-12 00:31:00,23.1,20.4,30.19,SW,221,2.0,4.0,89,0.00,,---,0.00,VWS V14.01,2013-02-12 06:31:00,
2013-02-12 00:37:00,23.1,20.1,30.18,SW,221,0.0,3.0,88,0.00,,---,0.00,VWS V14.01,2013-02-12 06:37:00,
2013-02-12 00:43:00,23.0,20.0,30.19,SW,221,0.0,3.0,88,0.00,,---,0.00,VWS V14.01,2013-02-12 06:43:00,
2013-02-12 00:49:00,22.7,19.7,30.19,SW,221,0.0,3.0,88,0.00,,---,0.00,VWS V14.01,2013-02-12 06:49:00,
2013-02-12 00:55:00,22.4,19.4,30.19,SW,221,0.0,3.0,88,0.00,,---,0.00,VWS V14.01,2013-02-12 06:55:00,
2013-02-12 01:01:00,22.2,19.2,30.19,SW,221,0.0,3.0,88,0.00,,---,0.00,VWS V14.01,2013-02-12 07:01:00,
2013-02-12 01:08:00,22.0,19.3,30.19,SW,221,3.0,3.0,89,0.00,,---,0.00,VWS V14.01,2013-02-12 07:08:00,
2013-02-12 01:14:00,22.3,19.6,30.19,SW,221,0.0,3.0,89,0.00,,---,0.00,VWS V14.01,2013-02-12 07:14:00,
2013-02-12 01:20:00,22.4,19.7,30.19,SW,221,4.0,4.0,89,0.00,,---,0.00,VWS V14.01,2013-02-12 07:20:00,
2013-02-12 01:26:00,22.6,19.9,30.19,SW,221,3.0,4.0,89,0.00,,---,0.00,VWS V14.01,2013-02-12 07:26:00,
2013-02-12 01:32:00,22.7,20.0,30.19,SW,221,3.0,3.0,89,0.00,,---,0.00,VWS V14.01,2013-02-12 07:32:00,
2013-02-12 01:38:00,22.6,19.9,30.19,SW,221,0.0,4.0,89,0.00,,---,0.00,VWS V14.01,2013-02-12 07:38:00,
2013-02-12 01:44:00,22.6,19.9,30.19,SW,221,1.0,4.0,89,0.00,,---,0.00,VWS V14.01,2013-02-12 07:44:00,
2013-02-12 01:50:00,22.6,19.9,30.19,SW,221,2.0,4.0,89,0.00,,---,0.00,VWS V14.01,2013-02-12 07:50:00,
2013-02-12 01:56:00,22.7,20.0,30.18,SW,221,0.0,4.0,89,0.00,,---,0.00,VWS V14.01,2013-02-12 07:56:00,
2013-02-12 02:02:00,22.9,20.1,30.18,SW,221,0.0,0.0,89,0.00,,---,0.00,VWS V14.01,2013-02-12 08:02:00,
2013-02-12 02:08:00,23.0,20.2,30.18,SW,221,0.0,0.0,89,0.00,,---,0.00,VWS V14.01,2013-02-12 08:08:00,
2013-02-12 02:14:00,23.1,20.4,30.18,SW,221,0.0,0.0,89,0.00,,---,0.00,VWS V14.01,2013-02-12 08:14:00,
2013-02-12 02:20:00,23.2,20.5,30.17,SW,221,0.0,0.0,89,0.00,,---,0.00,VWS V14.01,2013-02-12 08:20:00,
2013-02-12 02:26:00,22.9,19.9,30.17,SW,221,0.0,0.0,88,0.00,,---,0.00,VWS V14.01,2013-02-12 08:26:00,
2013-02-12 02:32:00,22.2,19.2,30.17,SW,221,0.0,0.0,88,0.00,,---,0.00,VWS V14.01,2013-02-12 08:32:00,
2013-02-12 02:38:00,21.9,18.9,30.17,SW,221,0.0,0.0,88,0.00,,---,0.00,VWS V14.01,2013-02-12 08:38:00,
2013-02-12 02:44:00,21.5,18.5,30.17,SW,221,0.0,0.0,88,0.00,,---,0.00,VWS V14.01,2013-02-12 08:44:00,
2013-02-12 02:50:00,21.1,18.1,30.16,SW,221,0.0,0.0,88,0.00,,---,0.00,VWS V14.01,2013-02-12 08:50:00,
2013-02-12 02:56:00,20.9,17.9,30.16,SW,221,0.0,0.0,88,0.00,,---,0.00,VWS V14.01,2013-02-12 08:56:00,
2013-02-12 03:02:00,21.5,19.0,30.16,SW,221,0.0,0.0,90,0.00,,---,0.00,VWS V14.01,2013-02-12 09:02:00,
2013-02-12 03:08:00,22.0,19.5,30.16,SW,221,0.0,0.0,90,0.00,,---,0.00,VWS V14.01,2013-02-12 09:08:00,
2013-02-12 03:15:00,22.0,19.3,30.15,SW,221,0.0,0.0,89,0.00,,---,0.00,VWS V14.01,2013-02-12 09:15:00,
2013-02-12 03:21:00,21.5,18.8,30.15,SW,221,0.0,0.0,89,0.00,,---,0.00,VWS V14.01,2013-02-12 09:21:00,
2013-02-12 03:27:00,21.8,19.1,30.15,SW,221,0.0,0.0,89,0.00,,---,0.00,VWS V14.01,2013-02-12 09:27:00,
2013-02-12 03:33:00,21.8,19.1,30.15,SW,221,0.0,0.0,89,0.00,,---,0.00,VWS V14.01,2013-02-12 09:33:00,
2013-02-12 03:39:00,21.6,18.9,30.14,SW,221,0.0,0.0,89,0.00,,---,0.00,VWS V14.01,2013-02-12 09:39:00,
2013-02-12 03:45:00,21.3,18.6,30.14,SW,221,0.0,0.0,89,0.00,,---,0.00,VWS V14.01,2013-02-12 09:45:00,
2013-02-12 03:51:00,21.1,18.4,30.13,SW,221,0.0,0.0,89,0.00,,---,0.00,VWS V14.01,2013-02-12 09:51:00,
2013-02-12 03:57:00,21.0,18.3,30.13,SW,221,0.0,0.0,89,0.00,,---,0.00,VWS V14.01,2013-02-12 09:57:00,
2013-02-12 04:03:00,20.9,18.2,30.13,SW,221,0.0,0.0,89,0.00,,---,0.00,VWS V14.01,2013-02-12 10:03:00,
2013-02-12 04:09:00,20.6,17.9,30.13,SW,221,0.0,0.0,89,0.00,,---,0.00,VWS V14.01,2013-02-12 10:09:00,
2013-02-12 04:15:00,20.2,17.5,30.13,SW,221,0.0,0.0,89,0.00,,---,0.00,VWS V14.01,2013-02-12 10:15:00,
2013-02-12 04:21:00,20.0,17.3,30.14,SW,221,0.0,0.0,89,0.00,,---,0.00,VWS V14.01,2013-02-12 10:21:00,
2013-02-12 04:27:00,19.8,17.1,30.14,SW,221,0.0,0.0,89,0.00,,---,0.00,VWS V14.01,2013-02-12 10:27:00,
2013-02-12 04:33:00,19.7,17.0,30.14,SW,221,0.0,0.0,89,0.00,,---,0.00,VWS V14.01,2013-02-12 10:33:00,
2013-02-12 04:39:00,19.7,17.2,30.14,SW,221,0.0,0.0,90,0.00,,---,0.00,VWS V14.01,2013-02-12 10:39:00,
2013-02-12 04:45:00,20.4,17.9,30.14,SW,221,0.0,0.0,90,0.00,,---,0.00,VWS V14.01,2013-02-12 10:45:00,
2013-02-12 04:51:00,21.3,19.1,30.14,SW,221,0.0,0.0,91,0.00,,---,0.00,VWS V14.01,2013-02-12 10:51:00,
2013-02-12 04:57:00,21.9,19.7,30.14,SW,221,0.0,0.0,91,0.00,,---,0.00,VWS V14.01,2013-02-12 10:57:00,
2013-02-12 05:03:00,21.9,19.4,30.15,SW,221,0.0,0.0,90,0.00,,---,0.00,VWS V14.01,2013-02-12 11:03:00,
2013-02-12 05:09:00,22.0,19.5,30.15,SW,221,0.0,0.0,90,0.00,,---,0.00,VWS V14.01,2013-02-12 11:09:00,
2013-02-12 05:15:00,22.2,19.7,30.15,SW,221,0.0,0.0,90,0.00,,---,0.00,VWS V14.01,2013-02-12 11:15:00,
2013-02-12 05:22:00,22.4,19.9,30.15,SW,221,0.0,0.0,90,0.00,,---,0.00,VWS V14.01,2013-02-12 11:22:00,
2013-02-12 05:28:00,22.2,19.5,30.14,SW,221,0.0,0.0,89,0.00,,---,0.00,VWS V14.01,2013-02-12 11:28:00,
2013-02-12 05:34:00,21.6,18.6,30.14,SW,221,0.0,0.0,88,0.00,,---,0.00,VWS V14.01,2013-02-12 11:34:00,
2013-02-12 05:40:00,21.5,18.8,30.14,SW,221,0.0,0.0,89,0.00,,---,0.00,VWS V14.01,2013-02-12 11:40:00,
2013-02-12 05:46:00,21.9,19.2,30.14,SW,221,1.0,3.0,89,0.00,,---,0.00,VWS V14.01,2013-02-12 11:46:00,
2013-02-12 05:52:00,22.2,19.5,30.14,SW,219,4.0,5.0,89,0.00,,---,0.00,VWS V14.01,2013-02-12 11:52:00,
2013-02-12 05:58:00,22.5,19.8,30.14,SW,220,3.0,5.0,89,0.00,,---,0.00,VWS V14.01,2013-02-12 11:58:00,
2013-02-12 06:04:00,22.8,19.8,30.14,SW,217,4.0,4.0,88,0.00,,---,0.00,VWS V14.01,2013-02-12 12:04:00,
2013-02-12 06:10:00,22.9,19.9,30.14,SW,215,1.0,5.0,88,0.00,,---,0.00,VWS V14.01,2013-02-12 12:10:00,
2013-02-12 06:16:00,23.0,20.0,30.14,SW,214,2.0,6.0,88,0.00,,---,0.00,VWS V14.01,2013-02-12 12:16:00,
2013-02-12 06:22:00,23.3,20.3,30.14,SSW,210,4.0,6.0,88,0.00,,---,0.00,VWS V14.01,2013-02-12 12:22:00,
2013-02-12 06:28:00,23.5,20.2,30.14,SSW,210,5.0,6.0,87,0.00,,---,0.00,VWS V14.01,2013-02-12 12:28:00,
2013-02-12 06:34:00,23.8,20.5,30.14,SW,217,4.0,6.0,87,0.00,,---,0.00,VWS V14.01,2013-02-12 12:34:00,
2013-02-12 06:40:00,23.7,20.1,30.14,SW,214,4.0,7.0,86,0.00,,---,0.00,VWS V14.01,2013-02-12 12:40:00,
2013-02-12 06:46:00,23.6,20.0,30.14,SSW,213,5.0,7.0,86,0.00,,---,0.00,VWS V14.01,2013-02-12 12:46:00,
2013-02-12 06:52:00,23.5,19.9,30.14,SSW,211,5.0,7.0,86,0.00,,---,0.00,VWS V14.01,2013-02-12 12:52:00,
2013-02-12 06:58:00,23.4,19.8,30.14,SSW,211,3.0,7.0,86,0.00,,---,0.00,VWS V14.01,2013-02-12 12:58:00,
2013-02-12 07:04:00,23.3,19.7,30.13,SSW,210,2.0,5.0,86,0.00,,---,0.00,VWS V14.01,2013-02-12 13:04:00,
2013-02-12 07:10:00,23.3,19.7,30.13,SSW,211,5.0,6.0,86,0.00,,---,0.00,VWS V14.01,2013-02-12 13:10:00,
2013-02-12 07:16:00,23.1,19.5,30.13,SSW,211,4.0,6.0,86,0.00,,---,0.00,VWS V14.01,2013-02-12 13:16:00,
2013-02-12 07:22:00,23.0,19.7,30.13,SSW,212,4.0,6.0,87,0.00,,---,0.00,VWS V14.01,2013-02-12 13:22:00,
2013-02-12 07:28:00,23.0,19.7,30.12,SW,214,4.0,6.0,87,0.00,,---,0.00,VWS V14.01,2013-02-12 13:28:00,
2013-02-12 07:34:00,23.0,19.7,30.12,SW,214,4.0,6.0,87,0.00,,---,0.00,VWS V14.01,2013-02-12 13:34:00,
2013-02-12 07:41:00,23.2,19.9,30.11,SW,214,5.0,6.0,87,0.00,,---,0.00,VWS V14.01,2013-02-12 13:41:00,
2013-02-12 07:47:00,23.3,20.0,30.11,SW,216,4.0,6.0,87,0.00,,---,0.00,VWS V14.01,2013-02-12 13:47:00,
2013-02-12 07:53:00,23.3,19.7,30.10,SW,217,3.0,6.0,86,0.00,,---,0.00,VWS V14.01,2013-02-12 13:53:00,
2013-02-12 07:59:00,23.3,19.7,30.10,SW,217,3.0,6.0,86,0.00,,---,0.00,VWS V14.01,2013-02-12 13:59:00,
2013-02-12 08:05:00,23.3,19.7,30.10,SW,217,6.0,6.0,86,0.00,,---,0.00,VWS V14.01,2013-02-12 14:05:00,
2013-02-12 08:11:00,23.5,20.2,30.10,SW,215,6.0,8.0,87,0.00,,---,0.00,VWS V14.01,2013-02-12 14:11:00,
2013-02-12 08:17:00,24.1,20.8,30.10,SSW,211,6.0,8.0,87,0.00,,---,0.00,VWS V14.01,2013-02-12 14:17:00,
2013-02-12 08:23:00,24.7,21.1,30.09,SW,214,7.0,9.0,86,0.00,,---,0.00,VWS V14.01,2013-02-12 14:23:00,
2013-02-12 08:29:00,25.1,21.2,30.09,SSW,209,5.0,9.0,85,0.00,,---,0.00,VWS V14.01,2013-02-12 14:29:00,
2013-02-12 08:35:00,25.4,21.2,30.09,SSW,213,5.0,6.0,84,0.00,,---,0.00,VWS V14.01,2013-02-12 14:35:00,
2013-02-12 08:41:00,25.7,21.3,30.08,SSW,211,6.0,7.0,83,0.00,,---,0.00,VWS V14.01,2013-02-12 14:41:00,
2013-02-12 08:47:00,26.1,21.4,30.08,SSW,194,7.0,8.0,82,0.00,,---,0.00,VWS V14.01,2013-02-12 14:47:00,
2013-02-12 08:53:00,26.5,21.5,30.09,SSW,211,7.0,9.0,81,0.00,,---,0.00,VWS V14.01,2013-02-12 14:53:00,
2013-02-12 08:59:00,27.0,22.0,30.09,SSW,212,7.0,9.0,81,0.00,,---,0.00,VWS V14.01,2013-02-12 14:59:00,
2013-02-12 09:05:00,27.6,22.2,30.10,SSW,207,7.0,10.0,80,0.00,,---,0.00,VWS V14.01,2013-02-12 15:05:00,
2013-02-12 09:11:00,27.9,22.2,30.10,SSW,211,8.0,11.0,79,0.00,,---,0.00,VWS V14.01,2013-02-12 15:11:00,
2013-02-12 09:17:00,28.3,22.6,30.10,SW,215,9.0,12.0,79,0.00,,---,0.00,VWS V14.01,2013-02-12 15:17:00,
2013-02-12 09:23:00,28.7,23.3,30.10,SW,217,10.0,12.0,80,0.00,,---,0.00,VWS V14.01,2013-02-12 15:23:00,
2013-02-12 09:29:00,28.8,23.1,30.11,SSW,205,7.0,12.0,79,0.00,,---,0.00,VWS V14.01,2013-02-12 15:29:00,
2013-02-12 09:35:00,29.2,23.5,30.10,SSW,207,6.0,10.0,79,0.00,,---,0.00,VWS V14.01,2013-02-12 15:35:00,
2013-02-12 09:42:00,29.7,24.0,30.10,SSW,213,8.0,10.0,79,0.00,,---,0.00,VWS V14.01,2013-02-12 15:42:00,
2013-02-12 09:47:00,30.3,24.3,30.10,SSW,211,3.0,10.0,78,0.00,,---,0.00,VWS V14.01,2013-02-12 15:47:00,
2013-02-12 09:53:00,30.9,24.5,30.09,SSW,209,7.0,12.0,77,0.00,,---,0.00,VWS V14.01,2013-02-12 15:53:00,
2013-02-12 10:00:00,31.4,25.0,30.09,SW,215,4.0,14.0,77,0.00,,---,0.00,VWS V14.01,2013-02-12 16:00:00,
2013-02-12 10:06:00,32.0,25.3,30.09,SSW,207,8.0,9.0,76,0.00,,---,0.00,VWS V14.01,2013-02-12 16:06:00,
2013-02-12 10:12:00,32.5,25.5,30.09,SSW,211,8.0,11.0,75,0.00,,---,0.00,VWS V14.01,2013-02-12 16:12:00,
2013-02-12 10:18:00,32.9,25.5,30.09,SW,215,8.0,11.0,74,0.00,,---,0.00,VWS V14.01,2013-02-12 16:18:00,
2013-02-12 10:24:00,33.7,26.6,30.09,SSW,213,4.0,11.0,75,0.00,,---,0.00,VWS V14.01,2013-02-12 16:24:00,
2013-02-12 10:30:00,34.4,26.7,30.10,SW,215,7.0,11.0,73,0.00,,---,0.00,VWS V14.01,2013-02-12 16:30:00,
2013-02-12 10:36:00,34.7,26.3,30.10,SSW,207,7.0,9.0,71,0.00,,---,0.00,VWS V14.01,2013-02-12 16:36:00,
2013-02-12 10:42:00,35.2,26.4,30.10,SW,214,2.0,10.0,70,0.00,,---,0.00,VWS V14.01,2013-02-12 16:42:00,
2013-02-12 10:48:00,35.7,26.5,30.09,SSW,213,8.0,10.0,69,0.00,,---,0.00,VWS V14.01,2013-02-12 16:48:00,
2013-02-12 10:54:00,36.0,26.1,30.09,SW,221,8.0,11.0,67,0.00,,---,0.00,VWS V14.01,2013-02-12 16:54:00,
2013-02-12 11:00:00,36.4,26.5,30.09,SW,216,2.0,11.0,67,0.00,,---,0.00,VWS V14.01,2013-02-12 17:00:00,
2013-02-12 11:06:00,36.9,26.2,30.10,SW,217,4.0,8.0,65,0.00,,---,0.00,VWS V14.01,2013-02-12 17:06:00,
2013-02-12 11:12:00,37.6,27.3,30.10,SW,217,3.0,10.0,66,0.00,,---,0.00,VWS V14.01,2013-02-12 17:12:00,
2013-02-12 11:19:00,38.2,27.1,30.10,SW,217,3.0,12.0,64,0.00,,---,0.00,VWS V14.01,2013-02-12 17:19:00,
2013-02-12 11:25:00,38.4,26.9,30.10,SSW,213,1.0,12.0,63,0.00,,---,0.00,VWS V14.01,2013-02-12 17:25:00,
2013-02-12 11:31:00,39.0,26.7,30.09,WSW,257,3.0,12.0,61,0.00,,---,0.00,VWS V14.01,2013-02-12 17:31:00,
2013-02-12 11:37:00,39.3,27.8,30.09,SW,221,3.0,9.0,63,0.00,,---,0.00,VWS V14.01,2013-02-12 17:37:00,
2013-02-12 11:43:00,39.6,26.9,30.08,WSW,249,1.0,9.0,60,0.00,,---,0.00,VWS V14.01,2013-02-12 17:43:00,
2013-02-12 11:49:00,40.1,27.8,30.08,South,191,3.0,9.0,61,0.00,,---,0.00,VWS V14.01,2013-02-12 17:49:00,
2013-02-12 11:55:00,40.6,27.4,30.09,WSW,246,3.0,10.0,59,0.00,,---,0.00,VWS V14.01,2013-02-12 17:55:00,
2013-02-12 12:01:00,40.6,27.4,30.08,WSW,250,1.0,10.0,59,0.00,,---,0.00,VWS V14.01,2013-02-12 18:01:00,
2013-02-12 12:07:00,41.2,28.0,30.07,SW,228,2.0,14.0,59,0.00,,---,0.00,VWS V14.01,2013-02-12 18:07:00,
2013-02-12 12:13:00,41.6,27.5,30.06,SSW,209,7.0,14.0,57,0.00,,---,0.00,VWS V14.01,2013-02-12 18:13:00,
2013-02-12 12:19:00,41.8,28.1,30.06,SW,214,5.0,14.0,58,0.00,,---,0.00,VWS V14.01,2013-02-12 18:19:00,
2013-02-12 12:25:00,42.0,27.0,30.06,SW,217,5.0,14.0,55,0.00,,---,0.00,VWS V14.01,2013-02-12 18:25:00,
2013-02-12 12:31:00,42.2,27.6,30.05,SW,214,12.0,14.0,56,0.00,,---,0.00,VWS V14.01,2013-02-12 18:31:00,
2013-02-12 12:37:00,42.7,28.1,30.05,SW,234,3.0,13.0,56,0.00,,---,0.00,VWS V14.01,2013-02-12 18:37:00,
2013-02-12 12:43:00,43.2,28.1,30.04,SSW,212,4.0,13.0,55,0.00,,---,0.00,VWS V14.01,2013-02-12 18:43:00,
2013-02-12 12:49:00,43.4,27.9,30.04,SW,225,2.0,13.0,54,0.00,,---,0.00,VWS V14.01,2013-02-12 18:49:00,
2013-02-12 12:55:00,43.5,27.5,30.02,WSW,256,3.0,13.0,53,0.00,,---,0.00,VWS V14.01,2013-02-12 18:55:00,
2013-02-12 13:01:00,43.2,26.8,30.02,SW,222,1.0,13.0,52,0.00,,---,0.00,VWS V14.01,2013-02-12 19:01:00,
2013-02-12 13:07:00,43.3,27.3,30.02,SW,227,4.0,13.0,53,0.00,,---,0.00,VWS V14.01,2013-02-12 19:07:00,
2013-02-12 13:14:00,43.6,27.1,30.02,WSW,242,5.0,13.0,52,0.00,,---,0.00,VWS V14.01,2013-02-12 19:14:00,
2013-02-12 13:20:00,44.3,27.8,30.01,SW,215,4.0,13.0,52,0.00,,---,0.00,VWS V14.01,2013-02-12 19:20:00,
2013-02-12 13:26:00,45.0,27.5,30.01,SW,223,4.0,14.0,50,0.00,,---,0.00,VWS V14.01,2013-02-12 19:26:00,
2013-02-12 13:31:00,45.1,27.6,30.01,SSW,207,7.0,14.0,50,0.00,,---,0.00,VWS V14.01,2013-02-12 19:31:00,
2013-02-12 13:36:00,45.3,27.8,30.01,SW,233,4.0,7.0,50,0.00,,---,0.00,VWS V14.01,2013-02-12 19:36:00,
2013-02-12 13:42:00,45.0,27.5,30.01,WSW,251,5.0,7.0,50,0.00,,---,0.00,VWS V14.01,2013-02-12 19:42:00,
2013-02-12 13:48:00,45.3,27.8,30.00,WSW,246,3.0,9.0,50,0.00,,---,0.00,VWS V14.01,2013-02-12 19:48:00,
2013-02-12 13:54:00,45.3,27.8,30.00,WSW,244,4.0,9.0,50,0.00,,---,0.00,VWS V14.01,2013-02-12 19:54:00,
2013-02-12 14:00:00,45.6,28.5,30.00,SSW,213,3.0,9.0,51,0.00,,---,0.00,VWS V14.01,2013-02-12 20:00:00,
2013-02-12 14:06:00,46.2,28.1,30.00,SW,223,2.0,9.0,49,0.00,,---,0.00,VWS V14.01,2013-02-12 20:06:00,
2013-02-12 14:12:00,46.6,29.0,29.99,South,188,2.0,10.0,50,0.00,,---,0.00,VWS V14.01,2013-02-12 20:12:00,
2013-02-12 14:18:00,46.9,28.2,29.99,WSW,250,5.0,10.0,48,0.00,,---,0.00,VWS V14.01,2013-02-12 20:18:00,
2013-02-12 14:24:00,46.8,28.2,29.99,SW,229,4.0,10.0,48,0.00,,---,0.00,VWS V14.01,2013-02-12 20:24:00,
2013-02-12 14:30:00,46.7,28.6,29.99,WSW,240,3.0,10.0,49,0.00,,---,0.00,VWS V14.01,2013-02-12 20:30:00,
2013-02-12 14:36:00,46.8,28.2,29.98,WSW,241,2.0,5.0,48,0.00,,---,0.00,VWS V14.01,2013-02-12 20:36:00,
2013-02-12 14:42:00,47.2,28.5,29.98,WSW,244,5.0,7.0,48,0.00,,---,0.00,VWS V14.01,2013-02-12 20:42:00,
2013-02-12 14:48:00,47.0,27.8,29.98,SW,221,1.0,10.0,47,0.00,,---,0.00,VWS V14.01,2013-02-12 20:48:00,
2013-02-12 14:54:00,46.9,28.2,29.97,SW,227,2.0,10.0,48,0.00,,---,0.00,VWS V14.01,2013-02-12 20:54:00,
2013-02-12 15:00:00,46.9,28.2,29.97,WSW,253,1.0,10.0,48,0.00,,---,0.00,VWS V14.01,2013-02-12 21:00:00,
2013-02-12 15:06:00,47.2,28.5,29.97,WSW,241,2.0,5.0,48,0.00,,---,0.00,VWS V14.01,2013-02-12 21:06:00,
2013-02-12 15:12:00,47.2,28.5,29.96,SW,223,0.0,14.0,48,0.00,,---,0.00,VWS V14.01,2013-02-12 21:12:00,
2013-02-12 15:18:00,47.2,29.0,29.96,WSW,237,1.0,14.0,49,0.00,,---,0.00,VWS V14.01,2013-02-12 21:18:00,
2013-02-12 15:24:00,47.3,28.6,29.96,WSW,250,2.0,14.0,48,0.00,,---,0.00,VWS V14.01,2013-02-12 21:24:00,
2013-02-12 15:30:00,47.5,28.8,29.96,SW,233,3.0,14.0,48,0.00,,---,0.00,VWS V14.01,2013-02-12 21:30:00,
2013-02-12 15:37:00,47.7,28.0,29.96,SW,226,2.0,5.0,46,0.00,,---,0.00,VWS V14.01,2013-02-12 21:37:00,
2013-02-12 15:43:00,48.1,27.8,29.96,WSW,237,3.0,5.0,45,0.00,,---,0.00,VWS V14.01,2013-02-12 21:43:00,
2013-02-12 15:49:00,48.1,27.2,29.96,West,261,5.0,6.0,44,0.00,,---,0.00,VWS V14.01,2013-02-12 21:49:00,
2013-02-12 15:55:00,48.1,26.7,29.95,WSW,254,4.0,6.0,43,0.00,,---,0.00,VWS V14.01,2013-02-12 21:55:00,
2013-02-12 16:01:00,48.1,26.7,29.95,WSW,246,3.0,6.0,43,0.00,,---,0.00,VWS V14.01,2013-02-12 22:01:00,
2013-02-12 16:07:00,48.2,27.3,29.95,SSW,210,2.0,4.0,44,0.00,,---,0.00,VWS V14.01,2013-02-12 22:07:00,
2013-02-12 16:13:00,48.2,27.3,29.95,SSW,213,1.0,4.0,44,0.00,,---,0.00,VWS V14.01,2013-02-12 22:13:00,
2013-02-12 16:19:00,48.0,26.6,29.95,SSW,213,2.0,6.0,43,0.00,,---,0.00,VWS V14.01,2013-02-12 22:19:00,
2013-02-12 16:25:00,47.7,26.3,29.95,WSW,249,1.0,6.0,43,0.00,,---,0.00,VWS V14.01,2013-02-12 22:25:00,
2013-02-12 16:31:00,47.4,25.5,29.95,WSW,254,5.0,7.0,42,0.00,,---,0.00,VWS V14.01,2013-02-12 22:31:00,
2013-02-12 16:37:00,47.0,25.1,29.95,West,263,1.0,6.0,42,0.00,,---,0.00,VWS V14.01,2013-02-12 22:37:00,
2013-02-12 16:43:00,46.7,25.4,29.95,West,274,2.0,6.0,43,0.00,,---,0.00,VWS V14.01,2013-02-12 22:43:00,
2013-02-12 16:49:00,46.4,25.7,29.95,West,261,1.0,6.0,44,0.00,,---,0.00,VWS V14.01,2013-02-12 22:49:00,
2013-02-12 16:55:00,46.4,26.8,29.94,West,267,1.0,6.0,46,0.00,,---,0.00,VWS V14.01,2013-02-12 22:55:00,
2013-02-12 17:01:00,46.3,26.1,29.94,West,268,0.0,6.0,45,0.00,,---,0.00,VWS V14.01,2013-02-12 23:01:00,
2013-02-12 17:07:00,46.1,24.9,29.94,West,260,3.0,4.0,43,0.00,,---,0.00,VWS V14.01,2013-02-12 23:07:00,
2013-02-12 17:13:00,45.9,25.2,29.94,WSW,242,1.0,5.0,44,0.00,,---,0.00,VWS V14.01,2013-02-12 23:13:00,
2013-02-12 17:19:00,45.5,25.9,29.94,WSW,241,0.0,5.0,46,0.00,,---,0.00,VWS V14.01,2013-02-12 23:19:00,
2013-02-12 17:25:00,45.0,26.0,29.94,SW,232,4.0,5.0,47,0.00,,---,0.00,VWS V14.01,2013-02-12 23:25:00,
2013-02-12 17:31:00,44.4,26.5,29.94,SSW,207,3.0,5.0,49,0.00,,---,0.00,VWS V14.01,2013-02-12 23:31:00,
2013-02-12 17:37:00,43.5,26.1,29.94,SW,214,5.0,6.0,50,0.00,,---,0.00,VWS V14.01,2013-02-12 23:37:00,
2013-02-12 17:43:00,42.8,25.9,29.94,SSW,213,5.0,6.0,51,0.00,,---,0.00,VWS V14.01,2013-02-12 23:43:00,
2013-02-12 17:50:00,42.2,25.4,29.94,SW,214,4.0,6.0,51,0.00,,---,0.00,VWS V14.01,2013-02-12 23:50:00,
2013-02-12 17:56:00,42.0,25.2,29.94,SW,215,4.0,6.0,51,0.00,,---,0.00,VWS V14.01,2013-02-12 23:56:00,
2013-02-12 18:01:00,41.6,25.3,29.93,SW,216,5.0,6.0,52,0.00,,---,0.00,VWS V14.01,2013-02-13 00:01:00,
2013-02-12 18:06:00,41.2,25.4,29.93,SW,216,4.0,5.0,53,0.00,,---,0.00,VWS V14.01,2013-02-13 00:06:00,
2013-02-12 18:12:00,40.8,25.0,29.93,SW,217,4.0,6.0,53,0.00,,---,0.00,VWS V14.01,2013-02-13 00:12:00,
2013-02-12 18:18:00,40.5,25.2,29.93,SW,216,5.0,6.0,54,0.00,,---,0.00,VWS V14.01,2013-02-13 00:18:00,
2013-02-12 18:24:00,40.1,24.8,29.93,SW,217,5.0,6.0,54,0.00,,---,0.00,VWS V14.01,2013-02-13 00:24:00,
2013-02-12 18:30:00,39.6,24.8,29.94,SW,214,5.0,6.0,55,0.00,,---,0.00,VWS V14.01,2013-02-13 00:30:00,
2013-02-12 18:36:00,39.2,24.4,29.94,SW,215,5.0,5.0,55,0.00,,---,0.00,VWS V14.01,2013-02-13 00:36:00,
2013-02-12 18:42:00,39.0,24.6,29.94,SW,215,1.0,5.0,56,0.00,,---,0.00,VWS V14.01,2013-02-13 00:42:00,
2013-02-12 18:48:00,38.8,24.5,29.94,SW,215,4.0,5.0,56,0.00,,---,0.00,VWS V14.01,2013-02-13 00:48:00,
2013-02-12 18:54:00,38.4,24.5,29.94,SW,215,0.0,5.0,57,0.00,,---,0.00,VWS V14.01,2013-02-13 00:54:00,
2013-02-12 19:00:00,37.7,24.7,29.94,SW,215,0.0,5.0,59,0.00,,---,0.00,VWS V14.01,2013-02-13 01:00:00,
2013-02-12 19:06:00,37.1,24.5,29.94,SW,215,0.0,2.0,60,0.00,,---,0.00,VWS V14.01,2013-02-13 01:06:00,
2013-02-12 19:12:00,37.1,24.1,29.94,SW,215,0.0,3.0,59,0.00,,---,0.00,VWS V14.01,2013-02-13 01:12:00,
2013-02-12 19:18:00,37.1,24.1,29.94,SW,215,0.0,3.0,59,0.00,,---,0.00,VWS V14.01,2013-02-13 01:18:00,
2013-02-12 19:24:00,36.8,23.8,29.94,SW,215,0.0,3.0,59,0.00,,---,0.00,VWS V14.01,2013-02-13 01:24:00,
2013-02-12 19:30:00,36.5,24.7,29.94,SW,215,0.0,3.0,62,0.00,,---,0.00,VWS V14.01,2013-02-13 01:30:00,
2013-02-12 19:36:00,36.5,23.1,29.95,SW,215,0.0,0.0,58,0.00,,---,0.00,VWS V14.01,2013-02-13 01:36:00,
2013-02-12 19:42:00,36.5,22.7,29.95,SW,215,0.0,0.0,57,0.00,,---,0.00,VWS V14.01,2013-02-13 01:42:00,
2013-02-12 19:48:00,36.4,22.2,29.95,SW,215,0.0,0.0,56,0.00,,---,0.00,VWS V14.01,2013-02-13 01:48:00,
2013-02-12 19:54:00,36.4,21.8,29.95,SW,215,0.0,0.0,55,0.00,,---,0.00,VWS V14.01,2013-02-13 01:54:00,
2013-02-12 20:00:00,36.2,21.6,29.95,SW,215,0.0,1.0,55,0.00,,---,0.00,VWS V14.01,2013-02-13 02:00:00,
2013-02-12 20:06:00,35.6,21.5,29.95,SW,215,0.0,1.0,56,0.00,,---,0.00,VWS V14.01,2013-02-13 02:06:00,
2013-02-12 20:13:00,35.1,21.0,29.95,SW,215,0.0,1.0,56,0.00,,---,0.00,VWS V14.01,2013-02-13 02:13:00,
2013-02-12 20:19:00,34.6,21.0,29.95,SW,215,0.0,1.0,57,0.00,,---,0.00,VWS V14.01,2013-02-13 02:19:00,
2013-02-12 20:25:00,34.4,20.8,29.95,SW,215,0.0,2.0,57,0.00,,---,0.00,VWS V14.01,2013-02-13 02:25:00,
2013-02-12 20:31:00,34.4,20.8,29.95,SW,215,0.0,2.0,57,0.00,,---,0.00,VWS V14.01,2013-02-13 02:31:00,
2013-02-12 20:37:00,34.1,20.9,29.96,SW,215,0.0,1.0,58,0.00,,---,0.00,VWS V14.01,2013-02-13 02:37:00,
2013-02-12 20:43:00,33.8,21.0,29.96,WNW,296,1.0,4.0,59,0.00,,---,0.00,VWS V14.01,2013-02-13 02:43:00,
2013-02-12 20:49:00,33.5,21.1,29.96,West,279,0.0,4.0,60,0.00,,---,0.00,VWS V14.01,2013-02-13 02:49:00,
2013-02-12 20:55:00,33.3,21.3,29.96,WNW,300,4.0,6.0,61,0.00,,---,0.00,VWS V14.01,2013-02-13 02:55:00,
2013-02-12 21:01:00,33.3,21.7,29.96,WNW,296,4.0,7.0,62,0.00,,---,0.00,VWS V14.01,2013-02-13 03:01:00,
2013-02-12 21:07:00,33.5,21.9,29.96,WNW,282,3.0,5.0,62,0.00,,---,0.00,VWS V14.01,2013-02-13 03:07:00,
2013-02-12 21:13:00,33.5,21.9,29.96,WNW,296,3.0,6.0,62,0.00,,---,0.00,VWS V14.01,2013-02-13 03:13:00,
2013-02-12 21:19:00,33.4,21.8,29.96,WNW,295,0.0,6.0,62,0.00,,---,0.00,VWS V14.01,2013-02-13 03:19:00,
2013-02-12 21:25:00,33.2,22.0,29.96,West,273,0.0,6.0,63,0.00,,---,0.00,VWS V14.01,2013-02-13 03:25:00,
2013-02-12 21:30:00,32.9,22.1,29.96,West,281,0.0,6.0,64,0.00,,---,0.00,VWS V14.01,2013-02-13 03:30:00,
2013-02-12 21:37:00,32.5,21.7,29.96,West,281,0.0,1.0,64,0.00,,---,0.00,VWS V14.01,2013-02-13 03:37:00,
2013-02-12 21:43:00,32.1,22.0,29.96,West,281,0.0,1.0,66,0.00,,---,0.00,VWS V14.01,2013-02-13 03:43:00,
2013-02-12 21:49:00,31.5,21.8,29.95,West,281,0.0,1.0,67,0.00,,---,0.00,VWS V14.01,2013-02-13 03:49:00,
2013-02-12 21:55:00,31.1,21.8,29.95,West,281,0.0,2.0,68,0.00,,---,0.00,VWS V14.01,2013-02-13 03:55:00,
2013-02-12 22:01:00,30.7,21.4,29.95,West,281,0.0,2.0,68,0.00,,---,0.00,VWS V14.01,2013-02-13 04:01:00,
2013-02-12 22:07:00,30.5,21.9,29.95,West,281,0.0,0.0,70,0.00,,---,0.00,VWS V14.01,2013-02-13 04:07:00,
2013-02-12 22:13:00,30.6,22.0,29.95,West,281,0.0,0.0,70,0.00,,---,0.00,VWS V14.01,2013-02-13 04:13:00,
2013-02-12 22:20:00,30.6,22.0,29.95,West,281,0.0,0.0,70,0.00,,---,0.00,VWS V14.01,2013-02-13 04:20:00,
2013-02-12 22:26:00,30.5,22.2,29.95,West,281,0.0,0.0,71,0.00,,---,0.00,VWS V14.01,2013-02-13 04:26:00,
2013-02-12 22:31:00,30.4,22.1,29.95,West,281,0.0,0.0,71,0.00,,---,0.00,VWS V14.01,2013-02-13 04:31:00,
2013-02-12 22:36:00,30.3,22.0,29.95,West,281,0.0,0.0,71,0.00,,---,0.00,VWS V14.01,2013-02-13 04:36:00,
2013-02-12 22:42:00,30.3,22.4,29.95,West,281,0.0,0.0,72,0.00,,---,0.00,VWS V14.01,2013-02-13 04:42:00,
2013-02-12 22:48:00,30.3,22.4,29.95,West,281,0.0,0.0,72,0.00,,---,0.00,VWS V14.01,2013-02-13 04:48:00,
2013-02-12 22:54:00,30.4,22.5,29.95,West,281,0.0,0.0,72,0.00,,---,0.00,VWS V14.01,2013-02-13 04:54:00,
2013-02-12 23:00:00,30.6,22.3,29.95,West,281,0.0,0.0,71,0.00,,---,0.00,VWS V14.01,2013-02-13 05:00:00,
2013-02-12 23:01:00,30.6,22.3,29.95,West,281,0.0,0.0,71,0.00,,---,0.00,VWS V14.01,2013-02-13 05:01:00,
2013-02-12 23:04:00,30.6,22.3,29.95,West,281,0.0,0.0,71,0.00,,---,0.00,VWS V14.01,2013-02-13 05:04:00,
2013-02-12 23:08:00,30.6,22.3,29.94,West,281,0.0,0.0,71,0.00,,---,0.00,VWS V14.01,2013-02-13 05:08:00,
2013-02-12 23:14:00,30.7,22.8,29.94,West,281,0.0,0.0,72,0.00,,---,0.00,VWS V14.01,2013-02-13 05:14:00,
2013-02-12 23:20:00,30.7,22.8,29.94,West,281,0.0,0.0,72,0.00,,---,0.00,VWS V14.01,2013-02-13 05:20:00,
2013-02-12 23:26:00,30.5,22.6,29.94,West,281,0.0,0.0,72,0.00,,---,0.00,VWS V14.01,2013-02-13 05:26:00,
2013-02-12 23:32:00,30.3,22.7,29.94,West,281,0.0,0.0,73,0.00,,---,0.00,VWS V14.01,2013-02-13 05:32:00,
2013-02-12 23:38:00,30.1,22.5,29.94,West,264,2.0,2.0,73,0.00,,---,0.00,VWS V14.01,2013-02-13 05:38:00,
2013-02-12 23:44:00,29.9,22.6,29.94,WSW,244,0.0,4.0,74,0.00,,---,0.00,VWS V14.01,2013-02-13 05:44:00,
2013-02-12 23:50:00,29.6,22.4,29.94,WSW,244,0.0,4.0,74,0.00,,---,0.00,VWS V14.01,2013-02-13 05:50:00,
2013-02-12 23:56:00,29.5,22.6,29.94,WSW,244,0.0,4.0,75,0.00,,---,0.00,VWS V14.01,2013-02-13 05:56:00,